EDT,Max TemperatureF,Mean TemperatureF,Min TemperatureF,Max Dew PointF,MeanDew PointF,Min DewpointF,Max Humidity, Mean Humidity, Min Humidity, Max Sea Level PressureIn, Mean Sea Level PressureIn, Min Sea Level PressureIn, Max VisibilityMiles, Mean VisibilityMiles, Min VisibilityMiles, Max Wind SpeedMPH, Mean Wind SpeedMPH, Max Gust SpeedMPH,PrecipitationIn, CloudCover, Events, WindDirDegrees
2013-9-1,83,75,66,68,65,60,93,72,51,29.91,29.86,29.82,10,7,2,7,1,12,0.01,6,Rain,359
2013-9-2,80,71,62,70,65,61,93,80,67,29.86,29.79,29.70,10,9,2,13,2,22,0.30,6,Rain-Thunderstorm,167
2013-9-3,77,69,60,63,60,55,100,75,50,29.83,29.76,29.72,10,6,0,6,1,,0.15,7,Fog-Rain,227
2013-9-4,72,65,57,59,57,55,97,88,78,29.95,29.93,29.91,10,8,4,12,3,18,0.13,8,Rain,343
2013-9-5,62,51,40,55,42,31,93,63,32,30.20,30.06,29.92,10,10,10,16,4,25,0.00,3,,329
2013-9-6,66,52,37,48,40,35,100,67,34,30.30,30.21,30.09,10,7,0,12,1,15,0.00,3,Fog,200
2013-9-7,73,61,48,52,48,45,93,66,38,30.08,29.96,29.84,10,10,10,10,3,14,T,4,Rain,203
2013-9-8,61,51,40,54,45,37,92,67,42,30.13,29.93,29.78,10,10,2,16,6,24,0.18,6,Rain,330
2013-9-9,70,53,35,49,40,34,100,64,28,30.24,30.16,30.09,10,8,0,12,2,15,0.00,2,Fog,188
2013-9-10,73,61,48,66,57,45,93,86,79,30.09,30.03,30.00,10,8,1,5,0,6,0.23,6,Rain,211
2013-9-11,90,76,61,73,65,61,93,69,44,30.02,29.98,29.92,10,4,0,14,3,21,0.09,2,Fog-Rain-Thunderstorm,200
2013-9-12,79,72,65,70,66,64,100,90,79,29.94,29.77,29.65,10,7,0,10,2,16,0.51,6,Fog-Rain-Thunderstorm,193
2013-9-13,65,59,52,64,56,48,97,89,80,29.87,29.73,29.65,10,8,2,14,6,20,0.50,8,Rain,337
2013-9-14,58,52,45,48,46,44,100,83,66,30.10,29.99,29.86,10,9,2,13,5,20,0.01,7,Rain,348
2013-9-15,68,55,42,53,46,42,100,73,45,30.16,30.10,30.03,10,6,0,10,2,18,0.01,4,Fog,212
2013-9-16,55,45,34,52,42,33,93,72,50,30.37,30.16,30.03,10,10,10,17,5,26,0.07,6,Rain,336
2013-9-17,62,47,31,43,34,30,100,70,39,30.51,30.42,30.36,10,5,0,9,1,13,0.00,4,Fog,15
2013-9-18,71,54,37,49,41,36,100,66,31,30.36,30.28,30.16,10,6,0,8,1,13,0.00,3,Fog,193
2013-9-19,76,58,40,53,44,39,100,69,38,30.20,30.15,30.06,10,6,0,5,1,,0.00,3,Fog,334
2013-9-20,80,63,46,56,50,45,100,70,39,30.13,30.05,29.94,10,6,0,9,2,15,0.00,2,Fog,176
2013-9-21,75,61,47,59,53,47,93,69,44,29.95,29.77,29.60,10,10,8,16,7,28,0.04,1,Rain,170
2013-9-22,64,56,47,61,50,39,100,81,61,29.91,29.70,29.58,10,8,2,15,6,24,0.55,7,Rain,302
2013-9-23,50,47,44,40,38,36,76,69,61,30.07,30.01,29.91,10,10,10,15,6,22,0.00,8,,326
2013-9-24,59,53,46,47,40,36,86,69,51,30.05,29.99,29.94,10,10,10,17,5,26,0.00,7,,334
2013-9-25,60,52,44,47,45,42,93,74,55,30.06,29.99,29.94,10,10,10,12,3,17,0.00,6,,8
2013-9-26,60,51,42,48,44,41,100,79,57,30.21,30.12,30.05,10,6,0,10,3,16,0.00,7,Fog,21
2013-9-27,69,57,44,51,48,44,93,71,49,30.34,30.27,30.20,10,10,10,9,1,15,0.00,5,,356
2013-9-28,73,59,44,54,46,43,100,69,38,30.42,30.34,30.28,10,5,0,7,0,9,0.00,2,Fog,170
2013-9-29,73,59,44,53,47,44,100,69,38,30.28,30.21,30.09,10,5,0,7,1,9,0.00,3,Fog,200
2013-9-30,74,58,42,52,45,41,100,68,35,30.14,30.08,30.00,10,5,0,7,1,9,0.00,3,Fog,200